Terminal Aerodrome Forecast
Issued by NWS

Home | Current Version | Previous Version | Text Only | Print | Product List | Glossary On
Versions: 1 2 3 4 5 6 7 8 9 10 11 12 13 14 15 16 17 18
000
FTUS46 KSEW 292300
TAFHQM
TAF
KHQM 292320Z 3000/3024 22010KT P6SM SCT050
     FM300400 22008KT P6SM SCT025 BKN050
     FM300800 18006KT P6SM OVC020
     FM301700 24007KT P6SM SCT020 BKN050=

USA.gov is the U.S. government's official web portal to all federal, state and local government web resources and services.